sensor_id;sensor_type;location;lat;lon;timestamp;noise_LAeq;noise_LA_min;noise_LA_max;noise_LA01;noise_LA95
36217;Laerm;22259;48.792;8.964;2023-01-15T00:01:25;47.02;43.04;59.46;;
36217;Laerm;22259;48.792;8.964;2023-01-15T00:03:52;52.32;43.56;69.04;;
36217;Laerm;22259;48.792;8.964;2023-01-15T00:06:18;46.81;43.33;62.32;;
36217;Laerm;22259;48.792;8.964;2023-01-15T00:08:43;52.11;43.42;65.81;;
36217;Laerm;22259;48.792;8.964;2023-01-15T00:11:09;52.91;43.51;67.88;;
36217;Laerm;22259;48.792;8.964;2023-01-15T00:13:34;49.48;43.74;60.37;;
36217;Laerm;22259;48.792;8.964;2023-01-15T00:16:06;53.13;42.92;69.48;;
36217;Laerm;22259;48.792;8.964;2023-01-15T00:18:32;54.47;43.22;65.66;;
36217;Laerm;22259;48.792;8.964;2023-01-15T00:20:58;50.89;44.25;70.69;;
36217;Laerm;22259;48.792;8.964;2023-01-15T00:23:24;47.24;42.86;59.50;;
36217;Laerm;22259;48.792;8.964;2023-01-15T00:26:09;45.95;42.44;53.02;;
36217;Laerm;22259;48.792;8.964;2023-01-15T00:28:55;50.95;42.98;66.57;;
36217;Laerm;22259;48.792;8.964;2023-01-15T00:31:21;58.39;45.31;75.84;;
36217;Laerm;22259;48.792;8.964;2023-01-15T00:33:46;48.62;42.90;57.02;;
36217;Laerm;22259;48.792;8.964;2023-01-15T00:36:11;47.71;43.49;54.28;;
36217;Laerm;22259;48.792;8.964;2023-01-15T00:38:37;48.81;43.26;61.83;;
36217;Laerm;22259;48.792;8.964;2023-01-15T00:41:02;49.16;43.32;56.72;;
36217;Laerm;22259;48.792;8.964;2023-01-15T00:43:28;49.72;43.47;67.53;;
36217;Laerm;22259;48.792;8.964;2023-01-15T00:45:53;45.99;42.49;60.32;;
36217;Laerm;22259;48.792;8.964;2023-01-15T00:48:18;52.31;42.24;69.13;;
36217;Laerm;22259;48.792;8.964;2023-01-15T00:50:44;47.96;42.64;55.66;;
36217;Laerm;22259;48.792;8.964;2023-01-15T00:53:09;50.49;42.97;59.66;;
36217;Laerm;22259;48.792;8.964;2023-01-15T00:55:34;46.89;42.53;54.65;;
36217;Laerm;22259;48.792;8.964;2023-01-15T00:58:00;46.57;41.61;56.05;;
36217;Laerm;22259;48.792;8.964;2023-01-15T01:00:25;47.24;43.01;54.09;;
36217;Laerm;22259;48.792;8.964;2023-01-15T01:02:51;45.79;42.49;51.60;;
36217;Laerm;22259;48.792;8.964;2023-01-15T01:05:16;46.01;42.89;58.39;;
36217;Laerm;22259;48.792;8.964;2023-01-15T01:07:41;45.63;42.47;54.29;;
36217;Laerm;22259;48.792;8.964;2023-01-15T01:10:07;46.63;42.04;56.70;;
36217;Laerm;22259;48.792;8.964;2023-01-15T01:12:33;47.74;42.52;56.72;;
36217;Laerm;22259;48.792;8.964;2023-01-15T01:14:58;55.36;43.44;72.82;;
36217;Laerm;22259;48.792;8.964;2023-01-15T01:17:24;50.00;41.96;57.37;;
36217;Laerm;22259;48.792;8.964;2023-01-15T01:19:49;46.79;41.51;56.44;;
36217;Laerm;22259;48.792;8.964;2023-01-15T01:22:14;48.47;42.75;56.72;;
36217;Laerm;22259;48.792;8.964;2023-01-15T01:24:40;49.98;43.00;59.80;;
36217;Laerm;22259;48.792;8.964;2023-01-15T01:27:05;45.53;41.44;58.52;;
36217;Laerm;22259;48.792;8.964;2023-01-15T01:29:31;46.09;42.03;55.04;;
36217;Laerm;22259;48.792;8.964;2023-01-15T01:31:56;46.07;42.61;55.12;;
36217;Laerm;22259;48.792;8.964;2023-01-15T01:34:21;52.34;43.63;64.94;;
36217;Laerm;22259;48.792;8.964;2023-01-15T01:36:47;47.07;42.53;56.90;;
36217;Laerm;22259;48.792;8.964;2023-01-15T01:39:17;44.45;42.01;50.59;;
36217;Laerm;22259;48.792;8.964;2023-01-15T01:41:42;47.15;42.72;52.74;;
36217;Laerm;22259;48.792;8.964;2023-01-15T01:46:52;51.83;42.50;66.04;;
36217;Laerm;22259;48.792;8.964;2023-01-15T01:49:17;46.23;41.91;55.14;;
36217;Laerm;22259;48.792;8.964;2023-01-15T01:51:44;45.62;41.15;56.67;;
36217;Laerm;22259;48.792;8.964;2023-01-15T01:54:11;45.06;41.70;52.23;;
36217;Laerm;22259;48.792;8.964;2023-01-15T01:56:38;47.31;42.94;54.59;;
36217;Laerm;22259;48.792;8.964;2023-01-15T01:59:03;44.92;41.84;56.22;;
36217;Laerm;22259;48.792;8.964;2023-01-15T02:01:31;45.33;41.22;52.26;;
36217;Laerm;22259;48.792;8.964;2023-01-15T02:03:56;47.15;43.01;61.47;;
36217;Laerm;22259;48.792;8.964;2023-01-15T02:06:22;46.37;41.68;57.84;;
36217;Laerm;22259;48.792;8.964;2023-01-15T02:08:48;44.50;41.61;49.87;;
36217;Laerm;22259;48.792;8.964;2023-01-15T02:11:15;48.05;41.20;67.72;;
36217;Laerm;22259;48.792;8.964;2023-01-15T02:13:43;47.61;42.09;76.68;;
36217;Laerm;22259;48.792;8.964;2023-01-15T02:16:15;48.91;41.72;60.89;;
36217;Laerm;22259;48.792;8.964;2023-01-15T02:21:31;44.08;40.08;50.54;;
36217;Laerm;22259;48.792;8.964;2023-01-15T02:26:46;45.11;42.21;64.62;;
36217;Laerm;22259;48.792;8.964;2023-01-15T02:29:15;45.16;41.84;53.36;;
36217;Laerm;22259;48.792;8.964;2023-01-15T02:31:42;45.99;41.70;52.89;;
36217;Laerm;22259;48.792;8.964;2023-01-15T02:34:26;47.21;41.98;57.27;;
36217;Laerm;22259;48.792;8.964;2023-01-15T02:36:56;44.83;40.55;53.35;;
36217;Laerm;22259;48.792;8.964;2023-01-15T02:39:22;43.49;40.93;47.47;;
36217;Laerm;22259;48.792;8.964;2023-01-15T02:41:50;44.20;41.06;59.14;;
36217;Laerm;22259;48.792;8.964;2023-01-15T02:44:17;43.18;40.08;68.70;;
36217;Laerm;22259;48.792;8.964;2023-01-15T02:46:43;51.66;40.67;68.26;;
36217;Laerm;22259;48.792;8.964;2023-01-15T02:49:10;43.80;40.89;52.66;;
36217;Laerm;22259;48.792;8.964;2023-01-15T02:51:39;43.20;40.05;63.88;;
36217;Laerm;22259;48.792;8.964;2023-01-15T02:54:05;42.73;39.97;65.54;;
36217;Laerm;22259;48.792;8.964;2023-01-15T02:56:33;42.74;39.89;49.04;;
36217;Laerm;22259;48.792;8.964;2023-01-15T02:59:06;41.79;38.92;46.87;;
36217;Laerm;22259;48.792;8.964;2023-01-15T03:01:34;43.61;39.89;53.08;;
36217;Laerm;22259;48.792;8.964;2023-01-15T03:08:01;42.51;38.63;52.06;;
36217;Laerm;22259;48.792;8.964;2023-01-15T03:10:45;42.92;38.60;50.02;;
36217;Laerm;22259;48.792;8.964;2023-01-15T03:13:57;44.12;38.81;51.03;;
36217;Laerm;22259;48.792;8.964;2023-01-15T03:19:39;44.29;39.70;56.87;;
36217;Laerm;22259;48.792;8.964;2023-01-15T03:22:06;41.97;39.28;48.20;;
36217;Laerm;22259;48.792;8.964;2023-01-15T03:24:53;42.39;39.87;49.16;;
36217;Laerm;22259;48.792;8.964;2023-01-15T03:27:20;42.24;39.67;50.63;;
36217;Laerm;22259;48.792;8.964;2023-01-15T03:29:53;42.06;39.08;50.82;;
36217;Laerm;22259;48.792;8.964;2023-01-15T03:32:19;42.44;39.64;60.97;;
36217;Laerm;22259;48.792;8.964;2023-01-15T03:34:47;42.06;38.67;63.13;;
36217;Laerm;22259;48.792;8.964;2023-01-15T03:37:13;42.03;39.21;56.30;;
36217;Laerm;22259;48.792;8.964;2023-01-15T03:39:39;42.26;39.49;50.27;;
36217;Laerm;22259;48.792;8.964;2023-01-15T03:42:17;43.15;39.84;48.32;;
36217;Laerm;22259;48.792;8.964;2023-01-15T03:44:59;44.44;40.64;54.35;;
36217;Laerm;22259;48.792;8.964;2023-01-15T03:50:36;42.59;39.34;47.57;;
36217;Laerm;22259;48.792;8.964;2023-01-15T03:53:25;42.69;39.28;50.49;;
36217;Laerm;22259;48.792;8.964;2023-01-15T03:56:00;42.25;39.67;47.72;;
36217;Laerm;22259;48.792;8.964;2023-01-15T03:58:31;43.27;39.75;51.57;;
36217;Laerm;22259;48.792;8.964;2023-01-15T04:01:00;45.67;40.00;54.72;;
36217;Laerm;22259;48.792;8.964;2023-01-15T04:03:27;43.12;40.43;53.16;;
36217;Laerm;22259;48.792;8.964;2023-01-15T04:05:55;44.03;40.46;57.62;;
36217;Laerm;22259;48.792;8.964;2023-01-15T04:08:21;42.76;40.05;51.60;;
36217;Laerm;22259;48.792;8.964;2023-01-15T04:10:49;42.70;40.00;48.77;;
36217;Laerm;22259;48.792;8.964;2023-01-15T04:13:15;46.93;40.50;65.26;;
36217;Laerm;22259;48.792;8.964;2023-01-15T04:15:40;53.42;41.12;72.67;;
36217;Laerm;22259;48.792;8.964;2023-01-15T04:18:05;43.04;39.81;50.15;;
36217;Laerm;22259;48.792;8.964;2023-01-15T04:20:31;43.34;40.41;48.43;;
36217;Laerm;22259;48.792;8.964;2023-01-15T04:22:56;42.98;39.78;46.78;;
36217;Laerm;22259;48.792;8.964;2023-01-15T04:25:21;43.11;39.58;48.81;;
36217;Laerm;22259;48.792;8.964;2023-01-15T04:27:47;43.93;40.23;51.73;;
36217;Laerm;22259;48.792;8.964;2023-01-15T04:30:13;41.54;38.67;48.22;;
36217;Laerm;22259;48.792;8.964;2023-01-15T04:32:41;41.42;39.05;47.82;;
36217;Laerm;22259;48.792;8.964;2023-01-15T04:35:06;41.75;38.41;49.35;;
36217;Laerm;22259;48.792;8.964;2023-01-15T04:37:32;42.66;39.84;56.40;;
36217;Laerm;22259;48.792;8.964;2023-01-15T04:39:57;42.40;38.88;55.01;;
36217;Laerm;22259;48.792;8.964;2023-01-15T04:42:23;41.94;38.67;50.85;;
36217;Laerm;22259;48.792;8.964;2023-01-15T04:45:07;41.91;39.12;47.75;;
36217;Laerm;22259;48.792;8.964;2023-01-15T04:47:32;47.24;39.58;63.60;;
36217;Laerm;22259;48.792;8.964;2023-01-15T04:49:57;42.49;39.55;51.70;;
36217;Laerm;22259;48.792;8.964;2023-01-15T04:52:23;44.90;39.67;55.24;;
36217;Laerm;22259;48.792;8.964;2023-01-15T04:54:48;43.10;39.92;53.03;;
36217;Laerm;22259;48.792;8.964;2023-01-15T04:57:13;42.28;39.55;49.54;;
36217;Laerm;22259;48.792;8.964;2023-01-15T04:59:39;43.13;39.28;53.31;;
36217;Laerm;22259;48.792;8.964;2023-01-15T05:02:04;43.68;40.55;51.48;;
36217;Laerm;22259;48.792;8.964;2023-01-15T05:04:30;43.16;39.58;60.66;;
36217;Laerm;22259;48.792;8.964;2023-01-15T05:06:55;43.69;40.28;60.89;;
36217;Laerm;22259;48.792;8.964;2023-01-15T05:09:20;51.63;43.01;66.47;;
36217;Laerm;22259;48.792;8.964;2023-01-15T05:11:46;54.01;48.96;66.28;;
36217;Laerm;22259;48.792;8.964;2023-01-15T05:14:11;49.42;44.68;68.39;;
36217;Laerm;22259;48.792;8.964;2023-01-15T05:16:37;51.44;45.77;66.91;;
36217;Laerm;22259;48.792;8.964;2023-01-15T05:19:03;52.06;45.67;74.02;;
36217;Laerm;22259;48.792;8.964;2023-01-15T05:21:29;53.14;45.95;67.02;;
36217;Laerm;22259;48.792;8.964;2023-01-15T05:23:59;51.72;44.79;66.46;;
36217;Laerm;22259;48.792;8.964;2023-01-15T05:26:25;52.72;44.57;65.99;;
36217;Laerm;22259;48.792;8.964;2023-01-15T05:28:54;49.63;44.54;64.43;;
36217;Laerm;22259;48.792;8.964;2023-01-15T05:31:20;50.97;44.94;66.67;;
36217;Laerm;22259;48.792;8.964;2023-01-15T05:33:46;53.86;44.65;67.71;;
36217;Laerm;22259;48.792;8.964;2023-01-15T05:36:13;50.73;44.08;64.66;;
36217;Laerm;22259;48.792;8.964;2023-01-15T05:38:39;50.21;43.44;59.60;;
36217;Laerm;22259;48.792;8.964;2023-01-15T05:41:05;49.69;44.12;63.19;;
36217;Laerm;22259;48.792;8.964;2023-01-15T05:43:50;49.83;44.01;68.36;;
36217;Laerm;22259;48.792;8.964;2023-01-15T05:46:15;52.40;42.68;68.94;;
36217;Laerm;22259;48.792;8.964;2023-01-15T05:48:40;51.45;44.19;63.84;;
36217;Laerm;22259;48.792;8.964;2023-01-15T05:51:06;46.40;43.14;57.16;;
36217;Laerm;22259;48.792;8.964;2023-01-15T05:53:31;46.81;42.61;58.46;;
36217;Laerm;22259;48.792;8.964;2023-01-15T05:56:05;44.99;42.58;54.27;;
36217;Laerm;22259;48.792;8.964;2023-01-15T05:58:30;44.96;42.09;56.21;;
36217;Laerm;22259;48.792;8.964;2023-01-15T06:00:56;44.92;41.81;60.52;;
36217;Laerm;22259;48.792;8.964;2023-01-15T06:03:22;44.65;41.50;55.90;;
36217;Laerm;22259;48.792;8.964;2023-01-15T06:05:51;44.52;41.22;59.37;;
36217;Laerm;22259;48.792;8.964;2023-01-15T06:08:16;44.15;40.85;53.70;;
36217;Laerm;22259;48.792;8.964;2023-01-15T06:10:46;44.24;40.76;58.09;;
36217;Laerm;22259;48.792;8.964;2023-01-15T06:13:11;45.57;40.08;69.21;;
36217;Laerm;22259;48.792;8.964;2023-01-15T06:15:37;52.42;41.38;70.54;;
36217;Laerm;22259;48.792;8.964;2023-01-15T06:18:02;44.44;42.03;53.06;;
36217;Laerm;22259;48.792;8.964;2023-01-15T06:20:28;43.73;39.37;53.65;;
36217;Laerm;22259;48.792;8.964;2023-01-15T06:22:53;43.95;40.64;53.04;;
36217;Laerm;22259;48.792;8.964;2023-01-15T06:25:18;43.78;40.87;51.23;;
36217;Laerm;22259;48.792;8.964;2023-01-15T06:27:44;44.13;40.60;52.29;;
36217;Laerm;22259;48.792;8.964;2023-01-15T06:30:10;43.49;40.48;50.27;;
36217;Laerm;22259;48.792;8.964;2023-01-15T06:32:36;43.16;40.41;50.98;;
36217;Laerm;22259;48.792;8.964;2023-01-15T06:35:01;43.72;40.69;52.30;;
36217;Laerm;22259;48.792;8.964;2023-01-15T06:37:26;44.33;40.78;56.47;;
36217;Laerm;22259;48.792;8.964;2023-01-15T06:39:52;44.89;41.73;53.21;;
36217;Laerm;22259;48.792;8.964;2023-01-15T06:42:17;45.08;42.56;57.51;;
36217;Laerm;22259;48.792;8.964;2023-01-15T06:45:01;49.23;43.77;63.50;;
36217;Laerm;22259;48.792;8.964;2023-01-15T06:47:46;49.01;42.86;69.23;;
36217;Laerm;22259;48.792;8.964;2023-01-15T06:50:11;46.81;42.21;63.42;;
36217;Laerm;22259;48.792;8.964;2023-01-15T06:52:36;47.14;43.19;66.63;;
36217;Laerm;22259;48.792;8.964;2023-01-15T06:55:02;47.65;43.47;65.65;;
36217;Laerm;22259;48.792;8.964;2023-01-15T06:57:27;46.51;42.97;62.17;;
36217;Laerm;22259;48.792;8.964;2023-01-15T06:59:53;47.37;43.70;60.04;;
36217;Laerm;22259;48.792;8.964;2023-01-15T07:02:18;46.50;43.08;59.30;;
36217;Laerm;22259;48.792;8.964;2023-01-15T07:04:44;46.00;42.49;57.84;;
36217;Laerm;22259;48.792;8.964;2023-01-15T07:07:09;46.08;42.88;56.53;;
36217;Laerm;22259;48.792;8.964;2023-01-15T07:09:34;47.80;43.29;63.84;;
36217;Laerm;22259;48.792;8.964;2023-01-15T07:12:00;53.02;43.45;72.81;;
36217;Laerm;22259;48.792;8.964;2023-01-15T07:14:25;47.31;43.73;55.23;;
36217;Laerm;22259;48.792;8.964;2023-01-15T07:16:52;50.53;43.89;67.36;;
36217;Laerm;22259;48.792;8.964;2023-01-15T07:19:17;46.94;43.29;58.54;;
36217;Laerm;22259;48.792;8.964;2023-01-15T07:21:43;46.38;43.13;69.64;;
36217;Laerm;22259;48.792;8.964;2023-01-15T07:24:09;48.03;43.42;60.76;;
36217;Laerm;22259;48.792;8.964;2023-01-15T07:26:35;47.11;43.47;63.24;;
36217;Laerm;22259;48.792;8.964;2023-01-15T07:29:01;47.09;43.39;64.12;;
36217;Laerm;22259;48.792;8.964;2023-01-15T07:31:26;46.73;42.76;67.92;;
36217;Laerm;22259;48.792;8.964;2023-01-15T07:33:52;46.85;43.08;58.89;;
36217;Laerm;22259;48.792;8.964;2023-01-15T07:36:17;45.87;42.93;63.73;;
36217;Laerm;22259;48.792;8.964;2023-01-15T07:38:42;45.88;43.19;55.76;;
36217;Laerm;22259;48.792;8.964;2023-01-15T07:41:08;47.42;42.74;66.47;;
36217;Laerm;22259;48.792;8.964;2023-01-15T07:43:52;45.90;42.62;59.21;;
36217;Laerm;22259;48.792;8.964;2023-01-15T07:46:36;53.83;42.90;69.58;;
36217;Laerm;22259;48.792;8.964;2023-01-15T07:49:20;45.99;42.92;59.04;;
36217;Laerm;22259;48.792;8.964;2023-01-15T07:52:04;46.47;43.23;54.63;;
36217;Laerm;22259;48.792;8.964;2023-01-15T07:54:29;46.31;43.50;55.44;;
36217;Laerm;22259;48.792;8.964;2023-01-15T07:56:54;47.49;43.56;57.71;;
36217;Laerm;22259;48.792;8.964;2023-01-15T07:59:20;47.52;44.24;54.11;;
36217;Laerm;22259;48.792;8.964;2023-01-15T08:01:46;46.74;43.78;54.85;;
36217;Laerm;22259;48.792;8.964;2023-01-15T08:04:11;48.05;44.34;57.45;;
36217;Laerm;22259;48.792;8.964;2023-01-15T08:06:36;48.42;44.50;57.21;;
36217;Laerm;22259;48.792;8.964;2023-01-15T08:09:02;48.58;44.04;57.65;;
36217;Laerm;22259;48.792;8.964;2023-01-15T08:11:28;47.54;43.94;70.57;;
36217;Laerm;22259;48.792;8.964;2023-01-15T08:14:12;52.27;44.50;68.75;;
36217;Laerm;22259;48.792;8.964;2023-01-15T08:16:56;51.28;43.92;66.78;;
36217;Laerm;22259;48.792;8.964;2023-01-15T08:19:21;49.59;45.16;69.70;;
36217;Laerm;22259;48.792;8.964;2023-01-15T08:21:49;49.22;44.75;58.84;;
36217;Laerm;22259;48.792;8.964;2023-01-15T08:24:15;47.66;44.07;55.33;;
36217;Laerm;22259;48.792;8.964;2023-01-15T08:26:40;48.98;45.33;54.87;;
36217;Laerm;22259;48.792;8.964;2023-01-15T08:29:05;47.66;44.15;56.91;;
36217;Laerm;22259;48.792;8.964;2023-01-15T08:31:31;48.97;44.62;59.24;;
36217;Laerm;22259;48.792;8.964;2023-01-15T08:33:56;48.65;44.35;57.61;;
36217;Laerm;22259;48.792;8.964;2023-01-15T08:36:21;48.92;44.40;67.03;;
36217;Laerm;22259;48.792;8.964;2023-01-15T08:38:47;48.07;43.74;54.59;;
36217;Laerm;22259;48.792;8.964;2023-01-15T08:41:13;47.59;44.46;57.02;;
36217;Laerm;22259;48.792;8.964;2023-01-15T08:43:38;47.89;43.69;67.36;;
36217;Laerm;22259;48.792;8.964;2023-01-15T08:46:04;51.90;43.53;66.96;;
36217;Laerm;22259;48.792;8.964;2023-01-15T08:48:30;48.61;43.32;61.51;;
36217;Laerm;22259;48.792;8.964;2023-01-15T08:50:55;45.71;42.86;61.73;;
36217;Laerm;22259;48.792;8.964;2023-01-15T08:53:21;45.79;43.24;64.60;;
36217;Laerm;22259;48.792;8.964;2023-01-15T08:55:46;45.88;43.24;56.61;;
36217;Laerm;22259;48.792;8.964;2023-01-15T08:58:12;45.67;42.96;62.36;;
36217;Laerm;22259;48.792;8.964;2023-01-15T09:00:37;46.13;43.49;61.63;;
36217;Laerm;22259;48.792;8.964;2023-01-15T09:03:03;45.33;42.78;62.66;;
36217;Laerm;22259;48.792;8.964;2023-01-15T09:05:28;47.40;43.15;74.06;;
36217;Laerm;22259;48.792;8.964;2023-01-15T09:07:53;46.73;42.90;65.72;;
36217;Laerm;22259;48.792;8.964;2023-01-15T09:10:19;46.40;43.26;69.73;;
36217;Laerm;22259;48.792;8.964;2023-01-15T09:12:48;45.15;41.93;65.35;;
36217;Laerm;22259;48.792;8.964;2023-01-15T09:15:13;51.67;42.81;68.78;;
36217;Laerm;22259;48.792;8.964;2023-01-15T09:17:39;52.25;43.09;69.60;;
36217;Laerm;22259;48.792;8.964;2023-01-15T09:20:05;47.47;43.93;62.82;;
36217;Laerm;22259;48.792;8.964;2023-01-15T09:22:31;47.44;44.21;66.04;;
36217;Laerm;22259;48.792;8.964;2023-01-15T09:24:57;46.92;43.88;61.31;;
36217;Laerm;22259;48.792;8.964;2023-01-15T09:27:22;47.43;43.59;70.71;;
36217;Laerm;22259;48.792;8.964;2023-01-15T09:29:48;48.12;44.68;68.04;;
36217;Laerm;22259;48.792;8.964;2023-01-15T09:32:13;48.48;44.70;66.20;;
36217;Laerm;22259;48.792;8.964;2023-01-15T09:34:38;49.57;44.66;71.46;;
36217;Laerm;22259;48.792;8.964;2023-01-15T09:37:04;48.63;44.77;64.53;;
36217;Laerm;22259;48.792;8.964;2023-01-15T09:39:29;49.46;44.43;76.82;;
36217;Laerm;22259;48.792;8.964;2023-01-15T09:42:18;49.70;44.31;71.43;;
36217;Laerm;22259;48.792;8.964;2023-01-15T09:45:29;51.62;43.72;70.89;;
36217;Laerm;22259;48.792;8.964;2023-01-15T09:53:42;49.34;42.85;73.57;;
36217;Laerm;22259;48.792;8.964;2023-01-15T09:56:29;47.12;42.97;65.12;;
36217;Laerm;22259;48.792;8.964;2023-01-15T09:58:57;46.86;43.22;64.99;;
36217;Laerm;22259;48.792;8.964;2023-01-15T10:01:28;52.23;43.60;66.80;;
36217;Laerm;22259;48.792;8.964;2023-01-15T10:04:02;46.80;43.38;65.43;;
36217;Laerm;22259;48.792;8.964;2023-01-15T10:10:18;47.85;43.00;71.14;;
36217;Laerm;22259;48.792;8.964;2023-01-15T10:12:44;48.00;44.07;65.16;;
36217;Laerm;22259;48.792;8.964;2023-01-15T10:15:16;61.33;44.48;89.63;;
36217;Laerm;22259;48.792;8.964;2023-01-15T10:17:48;52.45;42.74;71.02;;
36217;Laerm;22259;48.792;8.964;2023-01-15T10:20:38;47.71;43.88;68.67;;
36217;Laerm;22259;48.792;8.964;2023-01-15T10:29:02;47.12;43.19;64.82;;
36217;Laerm;22259;48.792;8.964;2023-01-15T10:31:43;46.80;42.68;64.36;;
36217;Laerm;22259;48.792;8.964;2023-01-15T10:37:11;45.90;42.32;62.30;;
36217;Laerm;22259;48.792;8.964;2023-01-15T10:39:41;45.95;41.82;59.50;;
36217;Laerm;22259;48.792;8.964;2023-01-15T10:42:18;47.21;43.09;66.12;;
36217;Laerm;22259;48.792;8.964;2023-01-15T10:49:13;52.94;47.48;72.55;;
36217;Laerm;22259;48.792;8.964;2023-01-15T10:51:43;51.03;46.98;73.34;;
36217;Laerm;22259;48.792;8.964;2023-01-15T10:57:56;52.96;47.12;78.36;;
36217;Laerm;22259;48.792;8.964;2023-01-15T11:00:24;50.06;45.31;65.87;;
36217;Laerm;22259;48.792;8.964;2023-01-15T11:03:12;51.95;47.00;65.30;;
36217;Laerm;22259;48.792;8.964;2023-01-15T11:05:42;50.10;46.14;67.87;;
36217;Laerm;22259;48.792;8.964;2023-01-15T11:08:17;49.31;45.39;66.22;;
36217;Laerm;22259;48.792;8.964;2023-01-15T11:10:44;49.14;45.10;65.05;;
36217;Laerm;22259;48.792;8.964;2023-01-15T11:16:16;52.97;44.90;71.35;;
36217;Laerm;22259;48.792;8.964;2023-01-15T11:19:03;51.19;45.06;66.89;;
36217;Laerm;22259;48.792;8.964;2023-01-15T11:21:48;49.19;44.79;72.80;;
36217;Laerm;22259;48.792;8.964;2023-01-15T11:24:14;49.50;44.89;66.45;;
36217;Laerm;22259;48.792;8.964;2023-01-15T11:26:40;50.31;45.15;66.75;;
36217;Laerm;22259;48.792;8.964;2023-01-15T11:29:13;49.57;45.13;65.39;;
36217;Laerm;22259;48.792;8.964;2023-01-15T11:31:39;49.54;45.97;64.37;;
36217;Laerm;22259;48.792;8.964;2023-01-15T11:34:13;48.31;44.60;61.68;;
36217;Laerm;22259;48.792;8.964;2023-01-15T11:36:40;48.61;44.77;59.40;;
36217;Laerm;22259;48.792;8.964;2023-01-15T11:39:19;47.47;44.05;59.64;;
36217;Laerm;22259;48.792;8.964;2023-01-15T11:41:45;48.06;44.19;61.01;;
36217;Laerm;22259;48.792;8.964;2023-01-15T11:44:31;48.24;44.47;59.82;;
36217;Laerm;22259;48.792;8.964;2023-01-15T11:47:16;54.96;45.13;69.50;;
36217;Laerm;22259;48.792;8.964;2023-01-15T11:50:00;49.53;45.07;60.10;;
36217;Laerm;22259;48.792;8.964;2023-01-15T11:52:45;48.69;45.21;58.37;;
36217;Laerm;22259;48.792;8.964;2023-01-15T11:55:12;48.41;44.93;58.97;;
36217;Laerm;22259;48.792;8.964;2023-01-15T11:57:38;47.64;44.04;63.14;;
36217;Laerm;22259;48.792;8.964;2023-01-15T12:00:05;47.55;44.72;61.17;;
36217;Laerm;22259;48.792;8.964;2023-01-15T12:05:14;48.61;45.25;59.03;;
36217;Laerm;22259;48.792;8.964;2023-01-15T12:07:40;48.65;44.93;59.56;;
36217;Laerm;22259;48.792;8.964;2023-01-15T12:10:20;54.10;45.53;70.57;;
36217;Laerm;22259;48.792;8.964;2023-01-15T12:17:31;53.03;44.29;69.50;;
36217;Laerm;22259;48.792;8.964;2023-01-15T12:26:02;48.38;44.51;61.16;;
36217;Laerm;22259;48.792;8.964;2023-01-15T12:28:32;48.35;44.41;55.48;;
36217;Laerm;22259;48.792;8.964;2023-01-15T12:31:34;47.33;43.87;59.78;;
36217;Laerm;22259;48.792;8.964;2023-01-15T12:40:14;47.44;43.61;65.72;;
36217;Laerm;22259;48.792;8.964;2023-01-15T12:42:42;47.52;44.51;59.82;;
36217;Laerm;22259;48.792;8.964;2023-01-15T12:45:33;53.42;44.24;71.02;;
36217;Laerm;22259;48.792;8.964;2023-01-15T12:48:02;47.99;44.42;57.88;;
36217;Laerm;22259;48.792;8.964;2023-01-15T12:50:43;50.28;44.05;61.36;;
36217;Laerm;22259;48.792;8.964;2023-01-15T12:56:41;47.73;44.15;70.14;;
36217;Laerm;22259;48.792;8.964;2023-01-15T13:01:56;46.67;43.43;60.88;;
36217;Laerm;22259;48.792;8.964;2023-01-15T13:04:33;46.27;43.94;56.51;;
36217;Laerm;22259;48.792;8.964;2023-01-15T13:07:03;45.84;43.43;55.37;;
36217;Laerm;22259;48.792;8.964;2023-01-15T13:13:20;46.94;43.22;55.58;;
36217;Laerm;22259;48.792;8.964;2023-01-15T13:16:03;50.15;42.49;67.89;;
36217;Laerm;22259;48.792;8.964;2023-01-15T13:18:48;51.25;42.69;68.87;;
36217;Laerm;22259;48.792;8.964;2023-01-15T13:21:17;46.26;43.80;54.93;;
36217;Laerm;22259;48.792;8.964;2023-01-15T13:24:10;46.67;44.18;53.96;;
36217;Laerm;22259;48.792;8.964;2023-01-15T13:28:14;46.62;43.45;55.46;;
36217;Laerm;22259;48.792;8.964;2023-01-15T13:30:46;45.75;43.44;54.68;;
36217;Laerm;22259;48.792;8.964;2023-01-15T13:33:18;46.20;43.26;59.18;;
36217;Laerm;22259;48.792;8.964;2023-01-15T13:35:53;46.08;42.85;55.98;;
36217;Laerm;22259;48.792;8.964;2023-01-15T13:38:20;45.53;42.59;54.13;;
36217;Laerm;22259;48.792;8.964;2023-01-15T13:40:47;45.65;42.65;65.48;;
36217;Laerm;22259;48.792;8.964;2023-01-15T13:47:35;52.42;42.75;68.26;;
36217;Laerm;22259;48.792;8.964;2023-01-15T13:50:05;45.44;43.37;53.36;;
36217;Laerm;22259;48.792;8.964;2023-01-15T13:52:37;45.04;42.71;54.00;;
36217;Laerm;22259;48.792;8.964;2023-01-15T13:55:18;48.25;43.43;56.41;;
36217;Laerm;22259;48.792;8.964;2023-01-15T13:57:44;47.24;43.58;60.73;;
36217;Laerm;22259;48.792;8.964;2023-01-15T14:00:31;47.73;44.06;64.28;;
36217;Laerm;22259;48.792;8.964;2023-01-15T14:02:58;47.28;43.36;59.53;;
36217;Laerm;22259;48.792;8.964;2023-01-15T14:05:29;46.11;43.71;53.20;;
36217;Laerm;22259;48.792;8.964;2023-01-15T14:07:55;46.82;43.70;55.01;;
36217;Laerm;22259;48.792;8.964;2023-01-15T14:10:24;47.97;43.73;67.51;;
36217;Laerm;22259;48.792;8.964;2023-01-15T14:36:19;46.48;43.81;59.57;;
36217;Laerm;22259;48.792;8.964;2023-01-15T14:38:54;46.83;43.80;54.28;;
36217;Laerm;22259;48.792;8.964;2023-01-15T14:41:27;47.50;43.23;54.96;;
36217;Laerm;22259;48.792;8.964;2023-01-15T14:43:54;48.90;44.55;60.56;;
36217;Laerm;22259;48.792;8.964;2023-01-15T14:46:25;51.85;43.68;66.77;;
36217;Laerm;22259;48.792;8.964;2023-01-15T14:48:52;51.71;43.74;66.38;;
36217;Laerm;22259;48.792;8.964;2023-01-15T14:51:33;46.89;43.94;65.51;;
36217;Laerm;22259;48.792;8.964;2023-01-15T14:54:09;48.56;43.55;60.22;;
36217;Laerm;22259;48.792;8.964;2023-01-15T14:56:56;47.95;43.61;60.60;;
36217;Laerm;22259;48.792;8.964;2023-01-15T14:59:47;48.04;43.72;66.92;;
36217;Laerm;22259;48.792;8.964;2023-01-15T15:02:14;46.08;43.63;52.96;;
36217;Laerm;22259;48.792;8.964;2023-01-15T15:04:47;46.82;43.94;56.68;;
36217;Laerm;22259;48.792;8.964;2023-01-15T15:07:20;50.21;43.78;63.85;;
36217;Laerm;22259;48.792;8.964;2023-01-15T15:09:47;47.30;44.15;55.84;;
36217;Laerm;22259;48.792;8.964;2023-01-15T15:21:38;50.23;43.89;67.79;;
36217;Laerm;22259;48.792;8.964;2023-01-15T15:24:14;47.74;44.53;64.26;;
36217;Laerm;22259;48.792;8.964;2023-01-15T15:26:42;49.55;43.69;67.68;;
36217;Laerm;22259;48.792;8.964;2023-01-15T15:29:11;47.14;43.84;62.92;;
36217;Laerm;22259;48.792;8.964;2023-01-15T15:31:42;47.16;44.14;58.46;;
36217;Laerm;22259;48.792;8.964;2023-01-15T15:34:16;47.43;44.27;65.61;;
36217;Laerm;22259;48.792;8.964;2023-01-15T15:36:43;47.53;44.00;53.18;;
36217;Laerm;22259;48.792;8.964;2023-01-15T15:39:18;47.02;43.45;58.41;;
36217;Laerm;22259;48.792;8.964;2023-01-15T15:41:44;45.50;43.39;60.17;;
36217;Laerm;22259;48.792;8.964;2023-01-15T15:44:33;50.87;43.53;67.04;;
36217;Laerm;22259;48.792;8.964;2023-01-15T15:47:19;52.93;43.22;69.51;;
36217;Laerm;22259;48.792;8.964;2023-01-15T15:50:03;45.62;43.15;55.33;;
36217;Laerm;22259;48.792;8.964;2023-01-15T15:52:28;45.45;43.13;51.77;;
36217;Laerm;22259;48.792;8.964;2023-01-15T15:55:00;49.17;43.37;59.74;;